createdAt,value
2018-07-30T00:00:13.755Z,20.30
2018-07-30T00:02:48.838Z,20.30
2018-07-30T00:05:23.006Z,20.20
2018-07-30T00:07:59.009Z,20.20
2018-07-30T00:10:33.283Z,20.20
2018-07-30T00:13:07.880Z,20.10
2018-07-30T00:15:42.129Z,20.10
2018-07-30T00:18:16.403Z,20.10
2018-07-30T00:20:50.477Z,20.00
2018-07-30T00:23:25.121Z,20.00
2018-07-30T00:25:59.786Z,20.00
2018-07-30T00:28:34.378Z,20.00
2018-07-30T00:31:09.357Z,20.00
2018-07-30T00:33:43.925Z,20.00
2018-07-30T00:36:18.945Z,20.00
2018-07-30T00:38:53.261Z,19.90
2018-07-30T00:41:28.024Z,19.90
2018-07-30T00:44:03.023Z,19.90
2018-07-30T00:46:37.810Z,19.90
2018-07-30T00:49:12.430Z,19.80
2018-07-30T00:51:47.035Z,19.80
2018-07-30T00:54:21.784Z,19.80
2018-07-30T00:56:56.480Z,19.70
2018-07-30T00:59:31.188Z,19.70
2018-07-30T01:02:06.020Z,19.70
2018-07-30T01:04:40.697Z,19.60
2018-07-30T01:07:15.599Z,19.60
2018-07-30T01:09:50.468Z,19.60
2018-07-30T01:12:25.363Z,19.60
2018-07-30T01:15:00.190Z,19.60
2018-07-30T01:17:35.024Z,19.50
2018-07-30T01:20:10.024Z,19.50
2018-07-30T01:22:44.773Z,19.50
2018-07-30T01:25:19.682Z,19.50
2018-07-30T01:27:53.903Z,19.50
2018-07-30T01:33:03.204Z,19.40
2018-07-30T01:35:37.794Z,19.40
2018-07-30T01:38:13.440Z,19.30
2018-07-30T01:40:48.101Z,19.30
2018-07-30T01:43:22.833Z,19.30
2018-07-30T01:45:57.787Z,19.30
2018-07-30T01:48:32.373Z,19.30
2018-07-30T01:51:07.376Z,19.20
2018-07-30T01:53:41.861Z,19.20
2018-07-30T01:56:16.594Z,19.20
2018-07-30T01:58:51.449Z,19.20
2018-07-30T02:01:26.036Z,19.20
2018-07-30T02:04:00.990Z,19.20
2018-07-30T02:06:35.984Z,19.20
2018-07-30T02:09:10.677Z,19.20
2018-07-30T02:11:44.914Z,19.20
2018-07-30T02:14:19.584Z,19.20
2018-07-30T02:16:54.240Z,19.20
2018-07-30T02:19:28.990Z,19.10
2018-07-30T02:22:03.836Z,19.10
2018-07-30T02:24:38.515Z,19.10
2018-07-30T02:27:13.579Z,19.00
2018-07-30T02:29:48.170Z,19.10
2018-07-30T02:32:22.381Z,19.00
2018-07-30T02:34:56.942Z,19.00
2018-07-30T02:37:32.139Z,18.90
2018-07-30T02:40:07.261Z,18.90
2018-07-30T02:42:41.797Z,18.90
2018-07-30T02:45:15.972Z,18.80
2018-07-30T02:47:50.536Z,18.80
2018-07-30T02:50:25.303Z,18.80
2018-07-30T02:52:59.896Z,18.80
2018-07-30T02:55:34.522Z,18.70
2018-07-30T02:58:16.494Z,18.70
2018-07-30T03:00:51.546Z,18.70
2018-07-30T03:03:26.298Z,18.60
2018-07-30T03:06:01.021Z,18.60
2018-07-30T03:08:35.765Z,18.60
2018-07-30T03:11:10.480Z,18.60
2018-07-30T03:13:45.546Z,18.60
2018-07-30T03:16:19.701Z,18.60
2018-07-30T03:18:54.309Z,18.60
2018-07-30T03:21:29.925Z,18.60
2018-07-30T03:24:04.984Z,18.60
2018-07-30T03:26:39.456Z,18.60
2018-07-30T03:29:14.064Z,18.60
2018-07-30T03:31:48.993Z,18.60
2018-07-30T03:34:23.703Z,18.60
2018-07-30T03:36:58.945Z,18.60
2018-07-30T03:39:33.288Z,18.60
2018-07-30T03:42:07.605Z,18.60
2018-07-30T03:44:42.355Z,18.60
2018-07-30T03:47:17.252Z,18.50
2018-07-30T03:49:52.276Z,18.50
2018-07-30T03:52:27.111Z,18.50
2018-07-30T03:55:01.482Z,18.50
2018-07-30T03:57:36.417Z,18.50
2018-07-30T04:00:12.619Z,18.50
2018-07-30T04:02:46.941Z,18.50
2018-07-30T04:05:21.513Z,18.40
2018-07-30T04:07:56.425Z,18.40
2018-07-30T04:10:31.077Z,18.40
2018-07-30T04:13:06.016Z,18.40
2018-07-30T04:15:40.691Z,18.40
2018-07-30T04:18:15.478Z,18.40
2018-07-30T04:20:50.153Z,18.40
2018-07-30T04:23:25.287Z,18.40
2018-07-30T04:25:59.593Z,18.50
2018-07-30T04:28:34.422Z,18.60
2018-07-30T04:31:09.057Z,18.70
2018-07-30T04:33:44.063Z,18.80
2018-07-30T04:36:18.921Z,18.90
2018-07-30T04:38:53.456Z,19.00
2018-07-30T04:41:28.569Z,19.20
2018-07-30T04:44:03.211Z,19.30
2018-07-30T04:46:37.936Z,19.50
2018-07-30T04:49:12.219Z,19.60
2018-07-30T04:51:46.280Z,19.60
2018-07-30T04:54:20.712Z,19.70
2018-07-30T04:56:54.911Z,19.70
2018-07-30T04:59:29.750Z,19.80
2018-07-30T05:02:03.907Z,19.80
2018-07-30T05:04:39.096Z,19.90
2018-07-30T05:07:14.364Z,19.90
2018-07-30T05:09:48.612Z,20.00
2018-07-30T05:12:23.646Z,20.10
2018-07-30T05:14:58.164Z,20.20
2018-07-30T05:17:32.825Z,20.30
2018-07-30T05:20:07.841Z,20.50
2018-07-30T05:22:42.214Z,20.60
2018-07-30T05:25:16.947Z,20.80
2018-07-30T05:27:51.655Z,21.00
2018-07-30T05:30:26.506Z,21.30
2018-07-30T05:33:00.945Z,21.60
2018-07-30T05:35:35.773Z,22.00
2018-07-30T05:38:10.393Z,22.60
2018-07-30T05:40:45.147Z,23.20
2018-07-30T05:43:19.880Z,23.70
2018-07-30T05:45:54.754Z,24.10
2018-07-30T05:48:29.607Z,24.50
2018-07-30T05:51:04.274Z,25.20
2018-07-30T05:53:39.030Z,26.20
2018-07-30T05:56:13.625Z,27.20
2018-07-30T05:58:48.576Z,28.00
2018-07-30T06:01:23.650Z,28.60
2018-07-30T06:03:58.394Z,29.30
2018-07-30T06:06:32.729Z,29.80
2018-07-30T06:09:09.130Z,30.30
2018-07-30T06:11:43.513Z,30.70
2018-07-30T06:14:17.904Z,31.10
2018-07-30T06:16:53.180Z,31.40
2018-07-30T06:19:28.034Z,31.70
2018-07-30T06:22:02.812Z,31.90
2018-07-30T06:24:37.794Z,32.10
2018-07-30T06:27:12.161Z,32.40
2018-07-30T06:29:47.037Z,32.50
2018-07-30T06:32:21.737Z,32.70
2018-07-30T06:34:56.452Z,32.90
2018-07-30T06:37:31.248Z,33.00
2018-07-30T06:40:06.053Z,33.10
2018-07-30T06:42:47.225Z,33.30
2018-07-30T06:45:21.349Z,33.40
2018-07-30T06:47:56.258Z,33.40
2018-07-30T06:50:31.148Z,33.50
2018-07-30T06:53:05.788Z,33.50
2018-07-30T06:55:40.377Z,33.60
2018-07-30T06:58:15.027Z,33.70
2018-07-30T07:00:49.911Z,33.70
2018-07-30T07:03:24.438Z,33.80
2018-07-30T07:05:59.209Z,33.80
2018-07-30T07:08:33.874Z,33.90
2018-07-30T07:11:08.306Z,34.00
2018-07-30T07:13:43.175Z,34.00
2018-07-30T07:16:17.603Z,34.10
2018-07-30T07:18:52.775Z,34.10
2018-07-30T07:21:28.067Z,34.20
2018-07-30T07:24:02.981Z,34.30
2018-07-30T07:26:37.453Z,34.30
2018-07-30T07:29:12.549Z,34.30
2018-07-30T07:31:47.513Z,34.40
2018-07-30T07:34:21.686Z,34.50
2018-07-30T07:36:56.212Z,34.70
2018-07-30T07:39:30.832Z,34.70
2018-07-30T07:42:05.647Z,34.70
2018-07-30T07:44:40.577Z,34.70
2018-07-30T07:47:15.184Z,34.70
2018-07-30T07:49:49.974Z,34.70
2018-07-30T07:52:24.653Z,34.80
2018-07-30T07:54:59.310Z,34.80
2018-07-30T07:57:33.608Z,34.80
2018-07-30T08:00:09.968Z,34.80
2018-07-30T08:02:44.104Z,34.80
2018-07-30T08:05:18.812Z,34.80
2018-07-30T08:07:53.737Z,34.80
2018-07-30T08:10:28.414Z,34.90
2018-07-30T08:13:03.226Z,34.80
2018-07-30T08:15:38.084Z,34.90
2018-07-30T08:18:12.888Z,35.00
2018-07-30T08:20:47.584Z,35.00
2018-07-30T08:23:22.293Z,35.00
2018-07-30T08:25:57.642Z,35.00
2018-07-30T08:28:32.819Z,35.10
2018-07-30T08:31:07.813Z,35.10
2018-07-30T08:33:42.037Z,35.10
2018-07-30T08:36:16.300Z,35.00
2018-07-30T08:38:50.782Z,35.00
2018-07-30T08:41:24.960Z,35.00
2018-07-30T08:43:59.746Z,35.00
2018-07-30T08:46:34.434Z,35.00
2018-07-30T08:49:09.343Z,35.10
2018-07-30T08:51:43.955Z,35.10
2018-07-30T08:54:18.818Z,35.20
2018-07-30T08:56:53.481Z,35.30
2018-07-30T08:59:28.157Z,35.40
2018-07-30T09:02:03.476Z,35.60
2018-07-30T09:04:38.416Z,35.70
2018-07-30T09:07:13.174Z,36.00
2018-07-30T09:09:47.848Z,36.20
2018-07-30T09:12:22.922Z,36.30
2018-07-30T09:14:57.255Z,36.40
2018-07-30T09:17:31.817Z,36.50
2018-07-30T09:20:06.641Z,36.50
2018-07-30T09:22:41.194Z,36.60
2018-07-30T09:25:16.071Z,36.70
2018-07-30T09:27:50.868Z,36.70
2018-07-30T09:30:25.697Z,36.70
2018-07-30T09:33:00.734Z,36.70
2018-07-30T09:35:35.118Z,36.70
2018-07-30T09:38:10.206Z,36.40
2018-07-30T09:40:44.467Z,36.10
2018-07-30T09:43:18.801Z,35.90
2018-07-30T09:45:53.308Z,35.90
2018-07-30T09:48:27.517Z,35.80
2018-07-30T09:51:02.262Z,35.70
2018-07-30T09:53:36.433Z,35.90
2018-07-30T09:58:45.435Z,36.20
2018-07-30T10:01:25.741Z,36.40
2018-07-30T10:04:00.914Z,36.50
2018-07-30T10:06:35.106Z,36.40
2018-07-30T10:09:11.292Z,35.80
2018-07-30T10:11:45.426Z,34.90
2018-07-30T10:14:20.349Z,34.20
2018-07-30T10:16:55.534Z,33.60
2018-07-30T10:19:30.458Z,33.00
2018-07-30T10:22:05.496Z,32.80
2018-07-30T10:24:39.956Z,32.50
2018-07-30T10:27:14.721Z,32.10
2018-07-30T10:29:49.489Z,31.90
2018-07-30T10:32:24.120Z,31.80
2018-07-30T10:34:58.811Z,32.00
2018-07-30T10:37:33.454Z,32.00
2018-07-30T10:40:08.197Z,31.80
2018-07-30T10:42:43.241Z,31.80
2018-07-30T10:45:17.757Z,31.80
2018-07-30T10:47:52.651Z,31.60
2018-07-30T10:50:26.816Z,31.40
2018-07-30T10:53:01.994Z,31.30
2018-07-30T10:55:36.474Z,31.40
2018-07-30T10:58:11.904Z,31.60
2018-07-30T11:00:46.773Z,31.80
2018-07-30T11:03:22.173Z,31.90
2018-07-30T11:05:57.165Z,31.90
2018-07-30T11:11:06.933Z,32.10
2018-07-30T11:13:41.367Z,32.20
2018-07-30T11:16:16.200Z,32.30
2018-07-30T11:18:50.911Z,32.30
2018-07-30T11:21:25.678Z,32.30
2018-07-30T11:24:01.094Z,32.30
2018-07-30T11:26:35.995Z,32.20
2018-07-30T11:29:10.771Z,32.20
2018-07-30T11:31:45.600Z,32.20
2018-07-30T11:34:19.942Z,32.20
2018-07-30T11:36:54.653Z,32.10
2018-07-30T11:39:29.500Z,32.00
2018-07-30T11:42:03.987Z,31.90
2018-07-30T11:44:38.661Z,31.80
2018-07-30T11:47:13.318Z,31.70
2018-07-30T11:49:48.185Z,31.60
2018-07-30T11:52:22.805Z,31.50
2018-07-30T11:54:57.546Z,31.40
2018-07-30T12:00:07.325Z,31.30
2018-07-30T12:02:42.426Z,31.30
2018-07-30T12:05:16.528Z,31.20
2018-07-30T12:07:51.481Z,31.20
2018-07-30T12:10:25.618Z,31.20
2018-07-30T12:13:00.372Z,31.10
2018-07-30T12:15:34.948Z,31.00
2018-07-30T12:18:09.141Z,30.90
2018-07-30T12:20:43.810Z,30.80
2018-07-30T12:23:18.467Z,30.60
2018-07-30T12:25:53.034Z,30.50
2018-07-30T12:28:27.515Z,30.40
2018-07-30T12:31:02.176Z,30.30
2018-07-30T12:33:36.942Z,30.30
2018-07-30T12:38:46.227Z,30.30
2018-07-30T12:41:20.884Z,30.30
2018-07-30T12:43:55.497Z,30.40
2018-07-30T12:46:30.100Z,30.50
2018-07-30T12:49:05.286Z,30.40
2018-07-30T12:51:39.905Z,30.30
2018-07-30T12:54:14.208Z,30.30
2018-07-30T12:56:50.018Z,30.20
2018-07-30T12:59:24.516Z,30.20
2018-07-30T13:01:59.317Z,30.20
2018-07-30T13:07:09.233Z,30.10
2018-07-30T13:09:44.029Z,30.10
2018-07-30T13:12:18.112Z,30.10
2018-07-30T13:14:52.295Z,30.10
2018-07-30T13:17:26.961Z,30.10
2018-07-30T13:20:01.037Z,30.00
2018-07-30T13:22:35.677Z,30.10
2018-07-30T13:25:09.832Z,30.20
2018-07-30T13:27:44.892Z,30.20
2018-07-30T13:30:19.784Z,30.20
2018-07-30T13:32:54.699Z,30.20
2018-07-30T13:35:28.988Z,30.20
2018-07-30T13:38:04.178Z,30.20
2018-07-30T13:40:38.750Z,30.10
2018-07-30T13:43:13.159Z,30.20
2018-07-30T13:45:47.981Z,30.20
2018-07-30T13:48:22.637Z,30.20
2018-07-30T13:50:57.345Z,30.20
2018-07-30T13:53:32.036Z,30.20
2018-07-30T13:56:06.993Z,30.20
2018-07-30T13:58:41.548Z,30.10
2018-07-30T14:01:16.571Z,30.10
2018-07-30T14:03:51.655Z,30.20
2018-07-30T14:06:25.998Z,30.20
2018-07-30T14:09:00.788Z,30.20
2018-07-30T14:11:35.201Z,30.20
2018-07-30T14:14:10.354Z,30.10
2018-07-30T14:16:44.659Z,30.00
2018-07-30T14:19:19.585Z,30.00
2018-07-30T14:21:54.504Z,29.90
2018-07-30T14:24:29.213Z,29.90
2018-07-30T14:27:03.572Z,29.90
2018-07-30T14:29:38.028Z,29.90
2018-07-30T14:32:13.398Z,29.90
2018-07-30T14:34:48.433Z,29.90
2018-07-30T14:37:22.682Z,29.90
2018-07-30T14:39:57.852Z,30.00
2018-07-30T14:42:32.629Z,30.00
2018-07-30T14:45:07.408Z,30.00
2018-07-30T14:47:42.157Z,30.00
2018-07-30T14:50:17.182Z,30.10
2018-07-30T14:52:51.412Z,30.20
2018-07-30T14:55:26.029Z,30.20
2018-07-30T14:58:00.672Z,30.20
2018-07-30T15:00:35.588Z,30.30
2018-07-30T15:03:09.846Z,30.30
2018-07-30T15:05:44.531Z,30.30
2018-07-30T15:08:19.194Z,30.30
2018-07-30T15:10:53.948Z,30.20
2018-07-30T15:13:28.796Z,30.20
2018-07-30T15:16:03.373Z,30.30
2018-07-30T15:18:38.128Z,30.30
2018-07-30T15:21:13.128Z,30.20
2018-07-30T15:23:47.483Z,30.20
2018-07-30T15:26:22.311Z,30.10
2018-07-30T15:28:56.924Z,30.10
2018-07-30T15:31:31.879Z,30.10
2018-07-30T15:34:06.582Z,30.10
2018-07-30T15:36:40.861Z,30.10
2018-07-30T15:39:15.158Z,30.00
2018-07-30T15:41:50.060Z,30.00
2018-07-30T15:44:24.851Z,30.00
2018-07-30T15:46:59.900Z,29.90
2018-07-30T15:49:34.108Z,29.90
2018-07-30T15:52:08.218Z,29.90
2018-07-30T15:57:17.420Z,29.80
2018-07-30T15:59:52.256Z,29.80
2018-07-30T16:02:27.009Z,29.70
2018-07-30T16:07:36.496Z,29.60
2018-07-30T16:10:11.310Z,29.50
2018-07-30T16:12:45.798Z,29.40
2018-07-30T16:15:20.786Z,29.40
2018-07-30T16:17:55.246Z,29.30
2018-07-30T16:20:29.805Z,29.20
2018-07-30T16:23:04.815Z,29.20
2018-07-30T16:25:39.432Z,29.20
2018-07-30T16:28:13.760Z,29.20
2018-07-30T16:30:48.498Z,29.20
2018-07-30T16:33:23.566Z,29.10
2018-07-30T16:35:57.957Z,29.20
2018-07-30T16:38:32.634Z,29.20
2018-07-30T16:41:07.259Z,29.20
2018-07-30T16:43:42.146Z,29.20
2018-07-30T16:46:17.237Z,29.20
2018-07-30T16:48:51.576Z,29.20
2018-07-30T16:51:26.284Z,29.20
2018-07-30T16:54:00.988Z,29.20
2018-07-30T16:56:35.638Z,29.20
2018-07-30T16:59:10.327Z,29.20
2018-07-30T17:01:44.717Z,29.20
2018-07-30T17:04:20.008Z,29.30
2018-07-30T17:06:54.174Z,29.30
2018-07-30T17:09:28.798Z,29.30
2018-07-30T17:12:03.734Z,29.30
2018-07-30T17:14:38.312Z,29.40
2018-07-30T17:17:12.889Z,29.40
2018-07-30T17:19:47.605Z,29.40
2018-07-30T17:22:22.263Z,29.40
2018-07-30T17:24:56.913Z,29.40
2018-07-30T17:27:31.501Z,29.40
2018-07-30T17:30:06.976Z,29.40
2018-07-30T17:32:42.139Z,29.40
2018-07-30T17:35:17.134Z,29.40
2018-07-30T17:37:51.943Z,29.40
2018-07-30T17:40:26.724Z,29.30
2018-07-30T17:43:01.601Z,29.20
2018-07-30T17:45:36.395Z,29.20
2018-07-30T17:48:10.948Z,29.20
2018-07-30T17:50:45.669Z,29.10
2018-07-30T17:53:20.521Z,29.00
2018-07-30T17:55:55.296Z,29.00
2018-07-30T17:58:30.128Z,29.00
2018-07-30T18:01:04.335Z,29.00
2018-07-30T18:03:38.713Z,29.00
2018-07-30T18:06:13.792Z,29.00
2018-07-30T18:11:22.697Z,28.90
2018-07-30T18:13:56.920Z,28.90
2018-07-30T18:16:31.799Z,28.80
2018-07-30T18:19:06.680Z,28.70
2018-07-30T18:21:41.090Z,28.60
2018-07-30T18:24:15.733Z,28.40
2018-07-30T18:26:50.604Z,28.30
2018-07-30T18:29:25.436Z,28.10
2018-07-30T18:32:00.232Z,28.00
2018-07-30T18:34:34.773Z,27.80
2018-07-30T18:37:09.625Z,27.70
2018-07-30T18:39:44.119Z,27.50
2018-07-30T18:42:18.825Z,27.40
2018-07-30T18:44:53.783Z,27.20
2018-07-30T18:47:28.400Z,27.10
2018-07-30T18:50:03.189Z,26.90
2018-07-30T18:52:37.728Z,26.80
2018-07-30T18:55:12.466Z,26.70
2018-07-30T18:57:47.353Z,26.50
2018-07-30T19:00:21.827Z,26.40
2018-07-30T19:02:56.656Z,26.40
2018-07-30T19:05:31.265Z,26.30
2018-07-30T19:08:06.645Z,26.10
2018-07-30T19:10:41.292Z,26.00
2018-07-30T19:13:15.392Z,25.90
2018-07-30T19:15:49.736Z,25.80
2018-07-30T19:18:24.768Z,25.70
2018-07-30T19:20:59.066Z,25.50
2018-07-30T19:23:33.170Z,25.50
2018-07-30T19:26:07.354Z,25.40
2018-07-30T19:28:42.084Z,25.20
2018-07-30T19:31:17.458Z,25.20
2018-07-30T19:33:52.663Z,25.10
2018-07-30T19:36:27.563Z,25.00
2018-07-30T19:39:02.221Z,24.90
2018-07-30T19:41:37.443Z,24.80
2018-07-30T19:44:11.745Z,24.70
2018-07-30T19:46:46.228Z,24.70
2018-07-30T19:49:21.075Z,24.60
2018-07-30T19:51:55.590Z,24.50
2018-07-30T19:54:30.030Z,24.40
2018-07-30T19:57:05.398Z,24.40
2018-07-30T19:59:39.581Z,24.30
2018-07-30T20:02:14.137Z,24.30
2018-07-30T20:04:48.911Z,24.20
2018-07-30T20:07:23.501Z,24.10
2018-07-30T20:09:58.355Z,24.10
2018-07-30T20:12:33.032Z,24.00
2018-07-30T20:15:07.929Z,23.90
2018-07-30T20:17:42.594Z,23.90
2018-07-30T20:20:17.324Z,23.80
2018-07-30T20:22:51.912Z,23.80
2018-07-30T20:25:26.136Z,23.70
2018-07-30T20:28:00.828Z,23.70
2018-07-30T20:30:35.894Z,23.60
2018-07-30T20:33:10.593Z,23.60
2018-07-30T20:35:45.734Z,23.50
2018-07-30T20:38:20.460Z,23.40
2018-07-30T20:40:55.145Z,23.40
2018-07-30T20:43:29.904Z,23.30
2018-07-30T20:48:39.138Z,23.20
2018-07-30T20:51:13.815Z,23.20
2018-07-30T20:53:48.523Z,23.10
2018-07-30T20:56:23.166Z,23.10
2018-07-30T20:58:58.007Z,23.00
2018-07-30T21:01:32.564Z,23.00
2018-07-30T21:04:07.392Z,22.90
2018-07-30T21:06:42.247Z,22.90
2018-07-30T21:09:16.620Z,22.80
2018-07-30T21:11:51.482Z,22.80
2018-07-30T21:14:26.259Z,22.70
2018-07-30T21:17:00.978Z,22.70
2018-07-30T21:19:35.718Z,22.60
2018-07-30T21:22:10.461Z,22.60
2018-07-30T21:24:45.107Z,22.60
2018-07-30T21:27:20.091Z,22.50
2018-07-30T21:29:54.958Z,22.50
2018-07-30T21:32:29.911Z,22.40
2018-07-30T21:35:04.668Z,22.40
2018-07-30T21:37:39.789Z,22.30
2018-07-30T21:40:14.422Z,22.30
2018-07-30T21:42:48.873Z,22.30
2018-07-30T21:45:23.512Z,22.30
2018-07-30T21:50:32.357Z,22.20
2018-07-30T21:53:07.766Z,22.20
2018-07-30T21:55:41.878Z,22.10
2018-07-30T21:58:16.482Z,22.10
2018-07-30T22:00:55.465Z,22.00
2018-07-30T22:03:30.334Z,22.00
2018-07-30T22:06:04.930Z,22.00
2018-07-30T22:08:39.504Z,21.90
2018-07-30T22:11:14.228Z,21.90
2018-07-30T22:13:48.981Z,21.80
2018-07-30T22:16:23.528Z,21.80
2018-07-30T22:21:32.846Z,21.70
2018-07-30T22:24:07.486Z,21.70
2018-07-30T22:26:42.357Z,21.60
2018-07-30T22:29:17.259Z,21.60
2018-07-30T22:31:52.187Z,21.60
2018-07-30T22:34:26.560Z,21.60
2018-07-30T22:37:01.379Z,21.50
2018-07-30T22:39:36.517Z,21.40
2018-07-30T22:42:10.761Z,21.40
2018-07-30T22:44:45.030Z,21.40
2018-07-30T22:47:19.675Z,21.30
2018-07-30T22:49:54.018Z,21.30
2018-07-30T22:52:28.801Z,21.30
2018-07-30T22:55:03.926Z,21.30
2018-07-30T22:57:38.476Z,21.20
2018-07-30T23:00:13.276Z,21.20
2018-07-30T23:02:47.752Z,21.10
2018-07-30T23:05:22.549Z,21.10
2018-07-30T23:07:57.636Z,21.20
2018-07-30T23:10:32.041Z,21.20
2018-07-30T23:13:07.006Z,21.20
2018-07-30T23:15:41.356Z,21.30
2018-07-30T23:18:16.025Z,21.30
2018-07-30T23:20:50.684Z,21.30
2018-07-30T23:23:25.376Z,21.30
2018-07-30T23:25:59.997Z,21.40
2018-07-30T23:28:34.750Z,21.40
2018-07-30T23:31:09.677Z,21.40
2018-07-30T23:33:44.296Z,21.40
2018-07-30T23:36:19.092Z,21.40
2018-07-30T23:38:53.865Z,21.40
2018-07-30T23:41:28.848Z,21.40
2018-07-30T23:44:03.580Z,21.40
2018-07-30T23:46:38.107Z,21.30
2018-07-30T23:49:13.012Z,21.30
2018-07-30T23:51:47.745Z,21.30
2018-07-30T23:54:22.384Z,21.20
2018-07-30T23:56:56.689Z,21.20
2018-07-30T23:59:30.824Z,21.10
